Time;durP1;ratioP1;P1;durP2;ratioP2;P2;SDS_P1;SDS_P2;PMS_P1;PMS_P2;Temp;Humidity;BMP_temperature;BMP_pressure;BME280_temperature;BME280_humidity;BME280_pressure;Samples;Min_cycle;Max_cycle;Signal;HPM_P1;HPM_P2
2022/08/04 00:02:17;;;;;;;3.88;1.60;;;24.10;43.90;;;;;;5093833;28;20024;-67
2022/08/04 00:04:46;;;;;;;2.70;1.60;;;24.10;44.00;;;;;;5093702;28;20023;-67
2022/08/04 00:07:29;;;;;;;3.10;1.65;;;24.10;44.00;;;;;;5093649;28;20016;-67
2022/08/04 00:10:03;;;;;;;5.60;1.60;;;24.00;44.30;;;;;;5093764;28;20030;-66
2022/08/04 00:12:34;;;;;;;4.35;1.70;;;24.00;44.50;;;;;;5093698;28;20020;-68
2022/08/04 00:15:02;;;;;;;1.90;1.60;;;24.00;44.90;;;;;;5094537;28;20473;-67
2022/08/04 00:17:35;;;;;;;4.15;1.70;;;24.00;44.80;;;;;;5114452;28;20032;-67
2022/08/04 00:20:03;;;;;;;3.53;1.55;;;24.00;45.40;;;;;;5114850;28;20023;-67
2022/08/04 00:22:30;;;;;;;4.13;1.98;;;24.00;45.30;;;;;;5113188;28;20126;-67
2022/08/04 00:24:59;;;;;;;3.95;1.60;;;24.00;45.70;;;;;;5114698;28;20551;-67
2022/08/04 00:27:30;;;;;;;2.88;1.88;;;23.90;45.50;;;;;;5114528;28;20020;-67
2022/08/04 00:29:57;;;;;;;2.05;1.50;;;23.90;45.90;;;;;;5114651;28;20024;-67
2022/08/04 00:32:25;;;;;;;2.13;1.90;;;23.90;45.90;;;;;;5114509;28;20031;-67
2022/08/04 00:34:53;;;;;;;1.40;1.25;;;23.80;45.80;;;;;;5110711;28;20104;-67
2022/08/04 00:37:23;;;;;;;3.55;1.60;;;23.80;45.70;;;;;;5094087;28;20032;-67
2022/08/04 00:39:50;;;;;;;3.72;2.30;;;23.80;45.80;;;;;;5094088;28;20023;-67
2022/08/04 00:42:24;;;;;;;3.38;1.75;;;23.70;45.70;;;;;;5093893;28;20060;-67
2022/08/04 00:44:56;;;;;;;2.05;1.85;;;23.70;45.80;;;;;;5093905;28;20035;-67
2022/08/04 00:47:54;;;;;;;3.08;1.70;;;23.60;46.20;;;;;;5094269;28;20070;-67
2022/08/04 00:50:25;;;;;;;5.05;1.80;;;23.60;45.80;;;;;;5093848;28;20035;-67
2022/08/04 00:53:27;;;;;;;2.10;1.90;;;23.60;46.00;;;;;;5093729;28;20060;-67
2022/08/04 00:55:56;;;;;;;2.30;1.73;;;23.50;46.00;;;;;;5093144;28;20385;-67
2022/08/04 00:58:35;;;;;;;9.55;2.05;;;23.50;46.30;;;;;;5093494;28;20043;-67
2022/08/04 01:01:07;;;;;;;2.17;1.90;;;23.50;46.40;;;;;;5093515;28;20024;-67
2022/08/04 01:04:00;;;;;;;2.22;1.40;;;23.50;46.50;;;;;;5093243;28;20110;-67
2022/08/04 01:06:48;;;;;;;6.57;2.20;;;23.40;46.70;;;;;;5092280;28;20028;-67
2022/08/04 01:09:42;;;;;;;1.77;1.65;;;23.40;46.90;;;;;;5092533;28;20077;-68
2022/08/04 01:12:35;;;;;;;2.13;1.92;;;23.30;46.50;;;;;;5093267;28;20567;-67
2022/08/04 01:15:18;;;;;;;2.90;1.95;;;23.30;46.90;;;;;;5091843;28;20122;-67
2022/08/04 01:17:58;;;;;;;2.55;1.90;;;23.30;47.10;;;;;;5093140;28;20051;-67
2022/08/04 01:20:25;;;;;;;3.45;1.90;;;23.20;47.50;;;;;;5093043;28;20051;-67
2022/08/04 01:22:57;;;;;;;2.83;2.00;;;23.20;47.40;;;;;;5092713;28;20040;-67
2022/08/04 01:25:26;;;;;;;2.08;1.65;;;23.20;47.70;;;;;;5092888;28;20492;-67
2022/08/04 01:28:22;;;;;;;1.95;1.75;;;23.10;47.60;;;;;;5092948;28;20024;-67
2022/08/04 01:30:53;;;;;;;2.00;1.77;;;23.10;48.70;;;;;;5092833;28;20050;-66
2022/08/04 01:33:21;;;;;;;2.30;1.88;;;23.10;48.50;;;;;;5092898;28;20020;-67
2022/08/04 01:35:51;;;;;;;4.78;2.15;;;23.10;48.90;;;;;;5099498;28;20031;-67
2022/08/04 01:38:36;;;;;;;12.38;2.30;;;23.00;49.00;;;;;;5113437;28;20081;-67
2022/08/04 01:41:05;;;;;;;2.78;2.00;;;23.00;49.10;;;;;;5113108;28;20047;-67
2022/08/04 01:43:34;;;;;;;4.47;2.13;;;23.00;49.30;;;;;;5112990;28;20028;-67
2022/08/04 01:46:04;;;;;;;3.28;1.95;;;22.90;49.50;;;;;;5113058;28;20018;-67
2022/08/04 01:48:30;;;;;;;2.88;2.00;;;23.00;49.60;;;;;;5111430;28;20037;-67
2022/08/04 01:51:01;;;;;;;3.65;1.95;;;22.90;49.70;;;;;;5101461;28;20041;-67
2022/08/04 01:53:36;;;;;;;2.63;1.60;;;22.90;49.40;;;;;;5104644;28;20080;-67
2022/08/04 01:56:04;;;;;;;2.95;1.80;;;22.90;50.00;;;;;;5092635;28;20531;-67
2022/08/04 01:58:32;;;;;;;1.90;1.70;;;22.90;49.70;;;;;;5091306;28;20470;-67
2022/08/04 02:01:05;;;;;;;4.82;1.95;;;22.90;50.20;;;;;;5092628;28;20032;-66
2022/08/04 02:03:33;;;;;;;3.53;1.92;;;22.80;50.50;;;;;;5092756;28;20048;-67
2022/08/04 02:06:16;;;;;;;7.22;1.92;;;22.80;50.40;;;;;;5092752;28;20091;-67
2022/08/04 02:09:13;;;;;;;5.20;2.10;;;22.80;50.70;;;;;;5092694;28;20019;-67
2022/08/04 02:11:44;;;;;;;6.25;2.38;;;22.80;50.90;;;;;;5092700;28;20024;-67
2022/08/04 02:14:44;;;;;;;3.30;1.92;;;22.80;50.80;;;;;;5092719;28;20020;-67
2022/08/04 02:17:11;;;;;;;3.85;2.75;;;22.80;51.40;;;;;;5092633;28;20029;-67
2022/08/04 02:19:49;;;;;;;4.50;2.17;;;22.80;51.40;;;;;;5092814;28;20377;-67
2022/08/04 02:22:21;;;;;;;2.58;1.83;;;22.80;51.90;;;;;;5096660;28;20107;-67
2022/08/04 02:24:54;;;;;;;3.70;2.30;;;22.80;52.00;;;;;;5095135;28;20401;-68
2022/08/04 02:27:28;;;;;;;3.28;2.10;;;22.80;51.90;;;;;;5096532;28;20024;-67
2022/08/04 02:30:02;;;;;;;2.60;2.40;;;22.70;51.90;;;;;;5096379;28;20066;-67
2022/08/04 02:32:38;;;;;;;4.55;2.67;;;22.70;51.90;;;;;;5096441;28;20493;-67
2022/08/04 02:35:13;;;;;;;2.28;2.00;;;22.70;52.10;;;;;;5096344;28;20393;-67
2022/08/04 02:37:48;;;;;;;3.20;2.10;;;22.70;52.00;;;;;;5104731;28;20042;-67
2022/08/04 02:40:19;;;;;;;3.45;2.20;;;22.70;51.90;;;;;;5116721;28;20085;-67
2022/08/04 02:42:45;;;;;;;2.60;1.90;;;22.70;52.10;;;;;;5116534;28;20016;-67
2022/08/04 02:45:11;;;;;;;3.25;2.35;;;22.70;52.00;;;;;;5116585;28;20076;-67
2022/08/04 02:47:38;;;;;;;2.67;2.08;;;22.60;51.90;;;;;;5116486;28;20035;-67
2022/08/04 02:50:07;;;;;;;2.28;2.08;;;22.60;51.70;;;;;;5116502;28;20376;-67
2022/08/04 02:52:34;;;;;;;6.43;2.50;;;22.60;51.90;;;;;;5103628;28;20380;-67
2022/08/04 02:55:01;;;;;;;2.42;2.00;;;22.60;52.50;;;;;;5095932;28;20024;-66
2022/08/04 02:57:30;;;;;;;3.45;2.30;;;22.60;52.30;;;;;;5095934;28;20114;-67
2022/08/04 03:00:11;;;;;;;2.10;1.90;;;22.50;52.60;;;;;;5095808;28;20481;-67
2022/08/04 03:02:55;;;;;;;3.53;2.47;;;22.50;52.70;;;;;;5095728;28;20024;-66
2022/08/04 03:05:25;;;;;;;2.90;2.58;;;22.50;52.90;;;;;;5095760;28;20016;-67
2022/08/04 03:08:08;;;;;;;3.65;2.10;;;22.50;52.90;;;;;;5097704;28;20400;-66
2022/08/04 03:10:46;;;;;;;3.42;2.50;;;22.50;53.00;;;;;;5116064;28;20581;-67
2022/08/04 03:13:24;;;;;;;4.72;2.72;;;22.50;53.00;;;;;;5115940;28;20084;-67
2022/08/04 03:16:14;;;;;;;5.28;2.20;;;22.50;53.10;;;;;;5115880;28;20028;-67
2022/08/04 03:19:07;;;;;;;3.22;2.30;;;22.40;53.00;;;;;;5115759;28;20027;-67
2022/08/04 03:22:02;;;;;;;2.70;2.25;;;22.40;53.00;;;;;;5115642;28;20055;-67
2022/08/04 03:24:51;;;;;;;;;;;22.40;53.20;;;;;;5073174;28;20410;-67
2022/08/04 03:27:17;;;;;;;5.47;2.65;;;22.40;52.10;;;;;;5072979;28;19912;-66
2022/08/04 03:29:57;;;;;;;3.92;2.50;;;22.40;52.90;;;;;;5072751;28;20028;-67
2022/08/04 03:32:32;;;;;;;6.90;2.35;;;22.30;53.10;;;;;;5072060;28;20032;-66
2022/08/04 03:35:15;;;;;;;2.00;1.80;;;22.30;53.10;;;;;;5072743;28;20036;-67
2022/08/04 03:38:02;;;;;;;3.17;2.05;;;22.20;53.40;;;;;;5071109;28;20069;-67
2022/08/04 03:40:39;;;;;;;2.30;2.10;;;22.30;53.30;;;;;;5072653;28;20031;-67
2022/08/04 03:43:28;;;;;;;2.38;2.17;;;22.30;53.50;;;;;;5072537;28;20041;-67
2022/08/04 03:46:08;;;;;;;3.92;2.47;;;22.30;53.40;;;;;;5072616;28;20326;-67
2022/08/04 03:48:44;;;;;;;2.72;2.42;;;22.30;53.50;;;;;;5072487;28;20403;-66
2022/08/04 03:54:51;;;;;;;2.63;2.33;;;22.20;53.80;;;;;;5072433;28;20437;-67
2022/08/04 03:57:26;;;;;;;3.53;2.67;;;22.20;53.90;;;;;;5072408;28;20024;-67
2022/08/04 04:00:16;;;;;;;2.90;2.42;;;22.20;54.10;;;;;;5072263;28;20029;-67
2022/08/04 04:03:14;;;;;;;4.00;2.10;;;22.20;54.00;;;;;;5113591;28;20035;-67
2022/08/04 04:05:57;;;;;;;5.22;2.42;;;22.20;54.00;;;;;;5114865;28;20129;-67
2022/08/04 04:08:44;;;;;;;8.15;3.15;;;22.20;54.20;;;;;;5113265;28;20024;-67
2022/08/04 04:11:45;;;;;;;7.22;2.97;;;22.20;54.40;;;;;;5114772;28;20027;-67
2022/08/04 04:14:41;;;;;;;2.90;2.60;;;22.20;54.10;;;;;;5071804;28;20482;-68
2022/08/04 04:17:28;;;;;;;5.35;2.45;;;22.30;54.70;;;;;;5071809;28;20449;-67
2022/08/04 04:20:13;;;;;;;2.35;2.15;;;22.20;54.60;;;;;;5071827;28;20397;-66
2022/08/04 04:22:50;;;;;;;2.55;2.35;;;22.30;54.40;;;;;;5071521;28;20043;-67
2022/08/04 04:25:41;;;;;;;4.53;2.42;;;22.30;54.50;;;;;;5071699;28;20055;-67
2022/08/04 04:28:34;;;;;;;11.40;2.92;;;22.30;55.10;;;;;;5071577;28;20086;-66
2022/08/04 04:31:17;;;;;;;6.55;2.53;;;22.30;54.50;;;;;;5071510;28;20516;-67
2022/08/04 04:34:13;;;;;;;3.85;2.42;;;22.40;54.60;;;;;;5071556;28;20028;-67
2022/08/04 04:37:10;;;;;;;5.40;2.58;;;22.40;54.80;;;;;;5071505;28;20032;-66
2022/08/04 04:40:11;;;;;;;6.32;2.58;;;22.50;54.60;;;;;;5071307;28;20144;-67
2022/08/04 04:43:01;;;;;;;8.00;2.95;;;22.50;54.70;;;;;;5070409;28;20037;-67
2022/08/04 04:45:59;;;;;;;6.07;2.67;;;22.60;54.60;;;;;;5071242;28;20560;-66
2022/08/04 04:48:35;;;;;;;8.70;2.20;;;22.60;54.70;;;;;;5084361;28;20431;-67
2022/08/04 04:51:19;;;;;;;8.30;3.00;;;22.70;54.70;;;;;;5093509;28;20024;-67
2022/08/04 04:54:12;;;;;;;5.80;2.50;;;22.70;54.50;;;;;;5097249;28;20044;-67
2022/08/04 04:56:40;;;;;;;7.47;2.50;;;22.70;54.40;;;;;;5093644;28;20039;-66
2022/08/04 04:59:14;;;;;;;2.50;2.20;;;22.80;54.40;;;;;;5093338;28;20085;-66
2022/08/04 05:02:11;;;;;;;5.38;2.95;;;22.80;54.40;;;;;;5093251;28;20031;-67
2022/08/04 05:05:04;;;;;;;3.78;2.45;;;22.90;54.10;;;;;;5096632;27;20036;-67
2022/08/04 05:07:45;;;;;;;3.90;2.55;;;23.00;54.00;;;;;;5101569;27;20484;-66
2022/08/04 05:10:25;;;;;;;5.82;2.58;;;23.00;53.80;;;;;;5105040;28;20057;-67
2022/08/04 05:13:16;;;;;;;2.13;1.92;;;23.10;53.60;;;;;;5113569;28;20094;-67
2022/08/04 05:15:46;;;;;;;2.90;2.30;;;23.10;53.40;;;;;;5094243;28;20039;-66
2022/08/04 05:18:20;;;;;;;3.30;2.42;;;23.20;53.10;;;;;;5095993;28;20496;-67
2022/08/04 05:20:57;;;;;;;8.77;2.08;;;23.30;53.10;;;;;;5103982;28;20077;-67
2022/08/04 05:23:27;;;;;;;2.45;2.25;;;23.30;53.00;;;;;;5092791;28;20020;-66
2022/08/04 05:26:01;;;;;;;5.50;2.28;;;23.40;52.90;;;;;;5104787;28;20059;-67
2022/08/04 05:28:38;;;;;;;3.72;2.35;;;23.50;52.90;;;;;;5128043;27;20074;-67
2022/08/04 05:31:20;;;;;;;6.85;2.53;;;23.50;52.90;;;;;;5130060;27;20353;-67
2022/08/04 05:33:56;;;;;;;2.85;2.42;;;23.60;53.30;;;;;;5113170;28;20137;-67
2022/08/04 05:36:34;;;;;;;4.20;2.60;;;23.60;52.30;;;;;;5113190;28;20059;-67
2022/08/04 05:39:02;;;;;;;2.97;2.30;;;23.70;52.00;;;;;;5110511;28;20357;-67
2022/08/04 05:41:29;;;;;;;2.85;2.55;;;23.70;52.00;;;;;;5113227;28;20477;-67
2022/08/04 05:43:56;;;;;;;2.60;2.28;;;23.80;51.80;;;;;;5111916;28;20118;-67
2022/08/04 05:46:23;;;;;;;3.17;2.40;;;23.90;51.80;;;;;;5111494;28;20024;-67
2022/08/04 05:48:51;;;;;;;3.53;2.72;;;23.90;51.60;;;;;;5096372;28;20358;-68
2022/08/04 05:51:17;;;;;;;2.58;2.20;;;24.00;51.50;;;;;;5092620;28;20419;-67
2022/08/04 05:53:46;;;;;;;3.95;2.38;;;24.00;51.40;;;;;;5097392;28;20032;-67
2022/08/04 05:56:14;;;;;;;3.28;2.60;;;24.10;51.20;;;;;;5112149;28;20027;-67
2022/08/04 05:58:41;;;;;;;3.92;2.33;;;24.10;51.20;;;;;;5115892;28;20019;-67
2022/08/04 06:01:10;;;;;;;2.83;2.50;;;24.20;51.10;;;;;;5115849;28;20015;-67
2022/08/04 06:03:38;;;;;;;3.70;2.80;;;24.30;50.90;;;;;;5115787;28;20110;-67
2022/08/04 06:06:05;;;;;;;3.75;2.42;;;24.30;50.90;;;;;;5115910;28;20019;-66
2022/08/04 06:08:31;;;;;;;3.85;2.47;;;24.40;50.70;;;;;;5115123;28;20072;-67
2022/08/04 06:11:02;;;;;;;4.32;2.33;;;24.50;50.80;;;;;;5115789;28;20016;-66
2022/08/04 06:13:32;;;;;;;8.23;2.67;;;24.50;50.50;;;;;;5115582;28;20027;-67
2022/08/04 06:16:00;;;;;;;6.57;3.03;;;24.60;50.50;;;;;;5112857;27;20499;-68
2022/08/04 06:18:29;;;;;;;6.75;2.70;;;24.70;50.50;;;;;;5113708;28;20035;-67
2022/08/04 06:20:59;;;;;;;5.03;2.40;;;24.70;50.40;;;;;;5114408;28;20047;-67
2022/08/04 06:23:28;;;;;;;3.72;2.47;;;24.80;50.30;;;;;;5114270;28;20042;-68
2022/08/04 06:25:57;;;;;;;4.85;2.40;;;24.90;50.10;;;;;;5115576;28;20448;-76
2022/08/04 06:28:26;;;;;;;5.00;2.80;;;24.90;50.00;;;;;;5098454;28;20477;-77
2022/08/04 06:30:54;;;;;;;3.88;2.53;;;25.00;49.90;;;;;;5096794;27;20024;-76
2022/08/04 06:33:32;;;;;;;5.13;3.05;;;25.00;49.80;;;;;;5094812;28;20397;-76
2022/08/04 06:36:00;;;;;;;7.65;3.55;;;25.00;49.70;;;;;;5096461;28;20099;-76
2022/08/04 06:38:27;;;;;;;7.35;3.58;;;25.10;49.40;;;;;;5101415;28;20032;-77
2022/08/04 06:40:58;;;;;;;6.47;4.00;;;25.20;49.40;;;;;;5112226;28;20035;-76
2022/08/04 06:43:26;;;;;;;5.53;3.35;;;25.20;49.90;;;;;;5106751;28;20377;-77
2022/08/04 06:45:55;;;;;;;5.90;3.45;;;25.30;49.30;;;;;;5096250;28;20024;-76
2022/08/04 06:48:22;;;;;;;8.30;4.22;;;25.30;49.10;;;;;;5116191;28;20480;-76
2022/08/04 06:50:49;;;;;;;16.20;3.72;;;25.30;49.00;;;;;;5116623;28;20035;-77
2022/08/04 06:53:16;;;;;;;10.25;4.00;;;25.40;49.10;;;;;;5116544;28;20051;-76
2022/08/04 06:55:44;;;;;;;6.45;3.45;;;25.40;48.90;;;;;;5116522;28;20024;-76
2022/08/04 06:58:11;;;;;;;6.75;4.00;;;25.50;49.10;;;;;;5116502;28;20376;-77
2022/08/04 07:00:39;;;;;;;13.55;5.72;;;25.50;48.90;;;;;;5115095;28;20027;-77
2022/08/04 07:03:06;;;;;;;11.00;5.50;;;25.60;48.70;;;;;;5114550;28;20072;-76
2022/08/04 07:05:33;;;;;;;14.57;6.22;;;25.70;48.60;;;;;;5116286;28;20103;-76
2022/08/04 07:07:59;;;;;;;15.20;6.45;;;25.70;48.50;;;;;;5114945;28;20015;-77
2022/08/04 07:10:29;;;;;;;10.85;6.05;;;25.70;48.40;;;;;;5114981;28;20465;-76
2022/08/04 07:13:00;;;;;;;13.35;7.30;;;25.80;48.40;;;;;;5114792;28;20030;-76
2022/08/04 07:15:27;;;;;;;23.38;8.73;;;25.90;48.20;;;;;;5114779;28;20081;-76
2022/08/04 07:17:55;;;;;;;15.75;7.13;;;26.00;48.80;;;;;;5115963;28;20375;-76
2022/08/04 07:20:21;;;;;;;22.50;7.25;;;26.00;48.60;;;;;;5115897;28;20484;-77
2022/08/04 07:22:48;;;;;;;15.27;7.80;;;26.10;48.00;;;;;;5114405;28;20051;-76
2022/08/04 07:25:15;;;;;;;14.30;7.22;;;26.20;47.80;;;;;;5115923;28;20026;-77
2022/08/04 07:27:42;;;;;;;15.10;6.70;;;26.30;48.00;;;;;;5114522;28;20080;-77
2022/08/04 07:30:08;;;;;;;18.67;8.63;;;26.30;48.00;;;;;;5114423;28;20026;-76
2022/08/04 07:32:36;;;;;;;20.73;9.25;;;26.40;47.80;;;;;;5114007;28;20079;-77
2022/08/04 07:35:03;;;;;;;17.63;9.55;;;26.50;47.80;;;;;;5115563;28;20020;-76
2022/08/04 07:37:29;;;;;;;20.67;10.15;;;26.50;47.40;;;;;;5115508;28;20028;-77
2022/08/04 07:39:55;;;;;;;19.55;10.23;;;26.70;47.10;;;;;;5115604;27;20028;-77
2022/08/04 07:42:21;;;;;;;16.70;8.55;;;26.70;46.60;;;;;;5115443;28;20537;-76
2022/08/04 07:44:47;;;;;;;22.20;10.07;;;26.80;46.70;;;;;;5107632;28;20096;-77
2022/08/04 07:47:13;;;;;;;25.42;9.88;;;26.90;46.80;;;;;;5095031;28;20113;-77
2022/08/04 07:49:42;;;;;;;17.60;8.60;;;27.00;46.90;;;;;;5094986;28;20481;-77
2022/08/04 07:52:09;;;;;;;23.73;7.90;;;27.00;46.40;;;;;;5094944;28;20056;-76
2022/08/04 07:54:35;;;;;;;18.70;7.55;;;27.10;45.80;;;;;;5094845;28;20077;-76
2022/08/04 07:57:01;;;;;;;18.63;7.88;;;27.20;45.90;;;;;;5094851;28;20035;-77
2022/08/04 07:59:27;;;;;;;14.38;6.85;;;27.30;45.60;;;;;;5093570;28;20036;-76
2022/08/04 08:01:57;;;;;;;17.83;7.68;;;27.30;45.60;;;;;;5100464;28;20101;-76
2022/08/04 08:04:23;;;;;;;15.32;6.07;;;27.40;44.90;;;;;;5115179;28;20015;-78
2022/08/04 08:06:50;;;;;;;14.48;5.60;;;27.50;45.00;;;;;;5113756;28;20027;-76
2022/08/04 08:09:20;;;;;;;17.20;6.22;;;27.60;45.30;;;;;;5115167;28;20027;-77
2022/08/04 08:11:48;;;;;;;13.50;5.68;;;27.70;44.80;;;;;;5115330;28;20042;-77
2022/08/04 08:14:15;;;;;;;14.80;6.07;;;27.80;44.80;;;;;;5113642;28;20023;-77
2022/08/04 08:16:42;;;;;;;18.80;6.30;;;27.90;44.30;;;;;;5113590;28;20457;-77
2022/08/04 08:19:08;;;;;;;16.45;6.38;;;27.90;44.00;;;;;;5114535;28;20405;-77
2022/08/04 08:21:34;;;;;;;14.73;6.15;;;28.00;44.20;;;;;;5114487;28;20069;-77
2022/08/04 08:24:00;;;;;;;18.83;4.95;;;28.10;43.70;;;;;;5114694;28;20503;-77
2022/08/04 08:26:26;;;;;;;9.68;5.53;;;28.20;43.30;;;;;;5114730;27;20031;-78
2022/08/04 08:28:53;;;;;;;7.78;4.20;;;28.20;43.20;;;;;;5114658;28;20030;-77
2022/08/04 08:31:18;;;;;;;10.30;3.80;;;28.30;43.60;;;;;;5113230;28;20021;-77
2022/08/04 08:33:46;;;;;;;6.40;3.88;;;28.30;43.70;;;;;;5113221;28;20054;-77
2022/08/04 08:36:27;;;;;;;5.53;3.38;;;28.40;43.00;;;;;;5114487;28;20023;-78
2022/08/04 08:39:12;;;;;;;7.13;4.43;;;28.50;43.30;;;;;;5114621;28;20019;-78
2022/08/04 08:41:59;;;;;;;9.70;4.55;;;28.60;43.00;;;;;;5114377;28;20023;-77
2022/08/04 08:44:59;;;;;;;7.65;4.35;;;28.70;42.80;;;;;;5099130;28;20056;-77
2022/08/04 08:48:03;;;;;;;6.63;3.42;;;28.80;42.90;;;;;;5092795;28;20435;-77
2022/08/04 08:50:49;;;;;;;4.83;3.43;;;28.80;42.70;;;;;;5093996;28;20047;-77
2022/08/04 08:53:21;;;;;;;5.55;3.17;;;28.90;42.40;;;;;;5093358;28;20266;-77
2022/08/04 08:56:12;;;;;;;15.23;5.88;;;29.00;42.40;;;;;;5093783;28;20436;-77
2022/08/04 08:58:47;;;;;;;17.27;5.47;;;29.10;41.40;;;;;;5093682;28;20389;-77
2022/08/04 09:01:50;;;;;;;12.57;5.65;;;29.10;41.00;;;;;;5096132;28;20020;-76
2022/08/04 09:05:00;;;;;;;9.30;4.40;;;29.20;41.50;;;;;;5113680;28;20114;-76
2022/08/04 09:07:52;;;;;;;7.30;3.20;;;29.30;41.70;;;;;;5070970;28;20033;-77
2022/08/04 09:10:27;;;;;;;6.80;2.97;;;29.40;41.10;;;;;;5071145;28;20119;-77
2022/08/04 09:13:03;;;;;;;5.90;3.33;;;29.40;40.90;;;;;;5071308;28;20059;-77
2022/08/04 09:15:55;;;;;;;13.43;4.03;;;29.50;41.00;;;;;;5070948;28;20087;-77
2022/08/04 09:18:36;;;;;;;8.75;4.10;;;29.60;41.10;;;;;;5070919;28;20033;-77
2022/08/04 09:21:35;;;;;;;6.00;2.95;;;29.70;40.50;;;;;;5054008;28;20656;-77
2022/08/04 09:24:15;;;;;;;5.10;2.80;;;29.70;40.40;;;;;;5071037;28;20028;-76
2022/08/04 09:27:01;;;;;;;6.63;3.10;;;29.80;40.50;;;;;;5070984;28;20047;-77
2022/08/04 09:29:36;;;;;;;3.75;2.67;;;29.90;40.10;;;;;;5030160;28;20159;-78
2022/08/04 09:32:26;;;;;;;10.60;2.90;;;30.00;39.80;;;;;;5069099;28;20032;-77
2022/08/04 09:35:33;;;;;;;4.90;3.05;;;30.00;40.10;;;;;;5070849;28;20028;-77
2022/08/04 09:38:15;;;;;;;7.05;3.10;;;30.10;40.20;;;;;;5070949;28;20032;-77
2022/08/04 09:40:47;;;;;;;5.15;3.10;;;30.10;39.60;;;;;;5076432;28;20040;-77
2022/08/04 09:43:24;;;;;;;4.88;2.90;;;30.20;39.80;;;;;;5092969;28;20024;-77
2022/08/04 09:46:05;;;;;;;4.65;3.58;;;30.20;39.10;;;;;;5091777;28;20031;-77
2022/08/04 09:48:46;;;;;;;4.38;3.45;;;30.30;39.40;;;;;;5093079;28;20511;-77
2022/08/04 09:51:23;;;;;;;7.85;3.55;;;30.30;38.90;;;;;;5093008;28;20077;-77
2022/08/04 09:54:02;;;;;;;13.90;3.50;;;30.40;39.00;;;;;;5093122;28;20028;-77
2022/08/04 09:57:06;;;;;;;4.63;3.15;;;30.40;39.10;;;;;;5093059;28;20030;-77
2022/08/04 09:59:42;;;;;;;3.80;2.80;;;30.50;39.10;;;;;;5053762;28;20037;-76
2022/08/04 10:02:12;;;;;;;4.40;2.95;;;30.50;38.60;;;;;;5079654;28;20277;-77
2022/08/04 10:04:41;;;;;;;4.68;2.70;;;30.60;38.70;;;;;;5090877;28;20067;-77
2022/08/04 10:07:29;;;;;;;4.53;2.95;;;30.70;38.80;;;;;;5090822;28;20024;-77
2022/08/04 10:10:31;;;;;;;6.75;2.60;;;30.70;38.70;;;;;;5052175;28;20039;-78
2022/08/04 10:13:44;;;;;;;8.07;3.78;;;30.80;38.90;;;;;;5077773;28;20504;-76
2022/08/04 10:16:19;;;;;;;4.85;3.08;;;30.80;38.30;;;;;;5073554;28;20480;-78
2022/08/04 10:19:00;;;;;;;3.75;2.13;;;30.90;38.30;;;;;;5090806;28;20146;-75
2022/08/04 10:21:46;;;;;;;2.78;2.45;;;31.00;38.30;;;;;;5090439;28;20047;-77
2022/08/04 10:24:47;;;;;;;3.20;2.17;;;31.00;37.90;;;;;;5073751;28;20122;-77
2022/08/04 10:27:25;;;;;;;4.88;1.90;;;31.10;37.70;;;;;;5010780;28;20073;-79
2022/08/04 10:29:59;;;;;;;4.65;2.38;;;31.10;37.50;;;;;;5063802;28;20449;-77
2022/08/04 10:32:29;;;;;;;7.03;2.10;;;31.20;37.40;;;;;;5072218;28;20081;-78
2022/08/04 10:35:22;;;;;;;3.75;2.20;;;31.30;37.40;;;;;;5090622;28;20112;-77
2022/08/04 10:38:25;;;;;;;2.15;1.92;;;31.20;37.30;;;;;;5092770;28;20067;-78
2022/08/04 10:41:05;;;;;;;3.50;3.20;;;31.30;36.70;;;;;;5093133;28;20026;-77
2022/08/04 10:43:34;;;;;;;2.17;1.98;;;31.40;36.20;;;;;;5096412;28;20446;-79
2022/08/04 10:46:11;;;;;;;3.35;2.08;;;31.40;36.20;;;;;;5096354;28;20031;-78
2022/08/04 10:49:01;;;;;;;2.92;2.28;;;31.50;36.80;;;;;;5095237;28;20027;-77
2022/08/04 10:51:48;;;;;;;2.92;2.17;;;31.50;36.80;;;;;;5095051;28;20103;-78
2022/08/04 10:54:31;;;;;;;4.15;2.00;;;31.60;36.60;;;;;;5096310;28;20024;-76
2022/08/04 10:57:05;;;;;;;3.90;2.75;;;31.60;36.70;;;;;;5096204;28;20055;-77
2022/08/04 10:59:44;;;;;;;3.45;2.45;;;31.70;36.20;;;;;;5096293;28;20079;-76
2022/08/04 11:02:36;;;;;;;3.65;2.25;;;31.70;35.50;;;;;;5108130;28;20037;-78
2022/08/04 11:05:33;;;;;;;2.97;2.20;;;31.70;36.30;;;;;;5117794;28;20039;-77
2022/08/04 11:08:10;;;;;;;5.43;2.42;;;31.80;36.10;;;;;;5119851;28;20020;-77
2022/08/04 11:10:50;;;;;;;2.92;2.15;;;31.90;35.10;;;;;;5117628;28;20024;-77
2022/08/04 11:13:16;;;;;;;3.28;2.05;;;31.90;35.30;;;;;;5116474;28;20027;-77
2022/08/04 11:15:57;;;;;;;3.10;2.13;;;31.90;34.70;;;;;;5116300;28;20546;-78
2022/08/04 11:18:57;;;;;;;1.67;1.58;;;32.00;35.20;;;;;;5116389;28;20027;-77
2022/08/04 11:21:32;;;;;;;2.45;1.65;;;32.00;34.50;;;;;;5113636;28;20047;-77
2022/08/04 11:24:08;;;;;;;4.88;1.88;;;32.00;34.40;;;;;;5115877;28;20027;-76
2022/08/04 11:26:53;;;;;;;2.08;1.60;;;32.10;33.80;;;;;;5114770;28;20034;-79
2022/08/04 11:29:58;;;;;;;4.15;1.42;;;32.10;33.70;;;;;;5115987;28;20392;-77
2022/08/04 11:32:41;;;;;;;2.40;1.70;;;32.20;33.60;;;;;;5104809;28;20051;-77
2022/08/04 11:35:12;;;;;;;2.10;1.53;;;32.30;33.60;;;;;;5094208;28;20432;-77
2022/08/04 11:37:48;;;;;;;2.88;1.52;;;32.30;33.50;;;;;;5095340;28;20024;-77
2022/08/04 11:40:43;;;;;;;3.05;1.60;;;32.30;33.80;;;;;;5109185;28;20054;-77
2022/08/04 11:43:32;;;;;;;2.15;1.60;;;32.40;34.20;;;;;;5115500;28;20057;-77
2022/08/04 11:46:05;;;;;;;1.75;1.65;;;32.50;33.70;;;;;;5114225;28;20024;-76
2022/08/04 11:48:44;;;;;;;2.42;1.98;;;32.50;33.90;;;;;;5114031;28;20024;-76
2022/08/04 11:51:10;;;;;;;1.70;1.60;;;32.50;33.70;;;;;;5115694;28;20031;-77
2022/08/04 11:53:38;;;;;;;2.13;1.92;;;32.60;33.40;;;;;;5113259;28;20393;-77
2022/08/04 11:56:09;;;;;;;3.00;1.80;;;32.60;33.50;;;;;;5114214;28;20044;-76
2022/08/04 11:58:35;;;;;;;2.92;1.77;;;32.70;33.40;;;;;;5114048;28;20027;-77
2022/08/04 12:01:12;;;;;;;2.67;1.85;;;32.70;33.90;;;;;;5113802;28;20108;-76
2022/08/04 12:03:49;;;;;;;5.28;2.10;;;32.70;33.20;;;;;;5113767;28;20038;-76
2022/08/04 12:06:35;;;;;;;3.67;1.88;;;32.80;32.50;;;;;;5113800;28;20026;-76
2022/08/04 12:09:13;;;;;;;2.28;1.70;;;32.80;32.80;;;;;;5115030;28;20474;-77
2022/08/04 12:11:47;;;;;;;3.88;1.77;;;32.90;33.10;;;;;;5113763;28;20023;-76
2022/08/04 12:14:48;;;;;;;1.38;1.27;;;32.90;33.20;;;;;;5114954;28;20582;-76
2022/08/04 12:17:23;;;;;;;2.38;1.83;;;32.90;32.60;;;;;;5114928;28;20038;-77
2022/08/04 12:19:56;;;;;;;2.08;1.88;;;33.00;32.50;;;;;;5113460;28;20023;-76
2022/08/04 12:22:24;;;;;;;3.45;2.17;;;33.00;32.70;;;;;;5114641;28;20047;-76
2022/08/04 12:25:06;;;;;;;2.65;2.17;;;33.10;32.70;;;;;;5113491;28;20107;-76
2022/08/04 12:27:50;;;;;;;2.80;1.67;;;33.00;32.90;;;;;;5113906;28;20015;-75
2022/08/04 12:30:18;;;;;;;4.57;2.15;;;33.00;32.30;;;;;;5114446;28;20027;-76
2022/08/04 12:33:05;;;;;;;2.50;1.80;;;33.10;32.60;;;;;;5110710;28;20038;-76
2022/08/04 12:35:54;;;;;;;3.00;1.90;;;33.10;32.60;;;;;;5113477;28;20024;-76
2022/08/04 12:38:25;;;;;;;1.85;1.63;;;33.10;32.50;;;;;;5100735;28;20028;-76
2022/08/04 12:40:54;;;;;;;2.13;1.90;;;33.20;32.70;;;;;;5094075;28;20035;-75
2022/08/04 12:43:29;;;;;;;2.45;1.80;;;33.20;32.80;;;;;;5092556;28;20380;-77
2022/08/04 12:46:01;;;;;;;4.07;1.75;;;33.30;32.80;;;;;;5094176;28;20385;-78
2022/08/04 12:48:28;;;;;;;2.13;1.60;;;33.30;32.60;;;;;;5094012;28;20020;-77
2022/08/04 12:50:56;;;;;;;1.92;1.52;;;33.40;32.90;;;;;;5093924;28;20020;-78
2022/08/04 12:53:27;;;;;;;2.97;1.80;;;33.40;32.50;;;;;;5093805;28;20070;-76
2022/08/04 12:55:54;;;;;;;2.70;1.73;;;33.40;32.60;;;;;;5093817;28;20035;-75
2022/08/04 12:58:23;;;;;;;2.95;1.90;;;33.50;32.50;;;;;;5092838;28;20377;-75
2022/08/04 13:01:03;;;;;;;3.13;2.10;;;33.50;31.90;;;;;;5093997;28;20473;-76
2022/08/04 13:03:42;;;;;;;3.00;1.73;;;33.50;31.90;;;;;;5093611;28;20035;-76
2022/08/04 13:06:12;;;;;;;5.25;1.90;;;33.50;31.50;;;;;;5092766;28;20024;-77
2022/08/04 13:08:41;;;;;;;2.13;1.40;;;33.50;31.00;;;;;;5093526;28;20404;-76
2022/08/04 13:11:10;;;;;;;3.38;2.08;;;33.60;30.80;;;;;;5092236;28;20034;-77
2022/08/04 13:13:37;;;;;;;2.33;1.67;;;33.60;30.70;;;;;;5092183;28;20028;-76
2022/08/04 13:16:06;;;;;;;1.92;1.73;;;33.60;30.50;;;;;;5093537;28;20016;-77
2022/08/04 13:18:38;;;;;;;2.40;1.98;;;33.70;30.80;;;;;;5093316;28;20027;-77
2022/08/04 13:21:30;;;;;;;3.10;1.60;;;33.70;30.20;;;;;;5093400;28;20074;-77
2022/08/04 13:24:02;;;;;;;3.85;1.75;;;33.70;30.50;;;;;;5091221;28;20040;-77
2022/08/04 13:26:29;;;;;;;2.83;1.50;;;33.70;30.20;;;;;;5093383;28;20048;-76
2022/08/04 13:28:59;;;;;;;2.75;1.85;;;33.80;30.00;;;;;;5093532;28;20032;-77
2022/08/04 13:31:43;;;;;;;3.20;1.60;;;33.80;29.30;;;;;;5095826;28;20026;-75
2022/08/04 13:34:10;;;;;;;2.88;1.52;;;33.80;29.70;;;;;;5101059;28;20510;-76
2022/08/04 13:36:37;;;;;;;2.53;1.88;;;33.80;30.00;;;;;;5093047;28;20177;-76
2022/08/04 13:39:12;;;;;;;3.22;1.70;;;33.80;29.00;;;;;;5092981;28;20054;-76